Weather observations for the past three days for
Willmar Municipal Airport - John L. Rice Field
Imperial (Metric)
Date Time (cdt) Wind (mph) Vis. (mi.) Weather Sky Cond. Temperature (ºF) Relative Humidity Wind Chill (°F) Heat Index (°F) Pressure Precipitation (in)
Air Dwpt 6 hour altimeter (in) sea level (mb) 1 hr 3 hr 6 hr
Max. Min.
02 15:15 W 17 G 23 10.00 A Few Clouds FEW085 68 33.8 28% 29.88 0.0
02 14:55 W 15 G 24 10.00 A Few Clouds FEW085 68 33.8 28% 29.9 0.0
02 14:35 SW 18 G 25 10.00 A Few Clouds FEW085 68 35.6 30% 29.9 0.0
02 14:15 W 16 G 28 10.00 Fair CLR 66.2 35.6 32% 29.91 0.0
02 13:55 W 15 G 24 10.00 Fair CLR 66.2 35.6 32% 29.92 0.0
02 13:35 W 16 G 23 10.00 Fair CLR 66.2 35.6 32% 29.94 0.0
02 13:15 SW 10 G 17 10.00 Fair CLR 64.4 35.6 34% 29.94 0.0
02 12:55 SW 16 10.00 Fair CLR 64.4 37.4 37% 29.96 0.0
02 12:35 SW 13 G 23 10.00 Fair CLR 62.6 35.6 37% 29.97 0.0
02 12:15 SW 14 G 22 10.00 Fair CLR 60.8 35.6 39% 29.98 0.0
02 11:55 SW 12 G 22 10.00 Fair CLR 60.8 35.6 39% 29.99 0.0
02 11:35 SW 13 G 20 10.00 Fair CLR 59 33.8 39% 30 0.0
02 11:15 SW 15 G 21 10.00 Fair CLR 59 35.6 42% 30.01 0.0
02 10:55 SW 12 G 18 10.00 Fair CLR 57.2 33.8 41% 30.03 0.0
02 10:35 SW 13 10.00 Fair CLR 55.4 33.8 44% 30.03 0.0
02 10:15 SW 13 10.00 Fair CLR 53.6 33.8 47% 30.04 0.0
02 09:55 SW 13 10.00 Fair CLR 53.6 32 44% 30.05 0.0
02 09:35 SW 13 10.00 A Few Clouds FEW090 51.8 32 47% 30.05 0.0
02 09:15 SW 14 10.00 Mostly Cloudy BKN090 50 32 50% 45 30.06 0.0
02 08:55 SW 13 10.00 Partly Cloudy SCT090 48.2 32 54% 43 30.06 0.0
02 08:35 SW 12 10.00 A Few Clouds FEW090 44.6 33.8 66% 39 30.07 0.0
02 08:15 SW 8 10.00 A Few Clouds FEW090 42.8 32 66% 39 30.07 0.0
02 07:55 SW 6 10.00 A Few Clouds FEW090 41 32 70% 38 30.07 0.0
02 07:35 Calm 10.00 Partly Cloudy SCT090 37.4 32 81% 30.08 0.0
02 07:15 Calm 10.00 A Few Clouds FEW090 32 32 100% 30.08 0.0
02 06:55 Calm 10.00 A Few Clouds FEW085 32 30.2 93% 30.08 0.0
02 06:35 Calm 10.00 Fair CLR 30.2 28.4 93% 30.08 0.0
02 06:15 Calm 10.00 Fair CLR 30.2 30.2 100% 30.08 0.0
02 05:55 Calm 10.00 Fair CLR 30.2 30.2 100% 30.08 0.0
02 05:35 Calm 10.00 Fair CLR 32 28.4 87% 30.08 0.0
02 05:15 Calm 10.00 Fair CLR 32 30.2 93% 30.09 0.0
02 04:55 Calm 10.00 Fair CLR 32 30.2 93% 30.09 0.0
02 04:35 Calm 10.00 Fair CLR 32 30.2 93% 30.09 0.0
02 04:15 W 5 10.00 Fair CLR 33.8 28.4 81% 30 30.09 0.0
02 03:55 W 3 10.00 Fair CLR 35.6 28.4 75% 30.09 0.0
02 03:35 W 3 10.00 Fair CLR 33.8 28.4 81% 30.08 0.0
02 03:15 W 3 10.00 Fair CLR 33.8 30.2 87% 30.08 0.0
02 02:55 Calm 10.00 Fair CLR 33.8 30.2 87% 30.08 0.0
02 02:35 W 3 10.00 Fair CLR 35.6 30.2 81% 30.08 0.0
02 02:15 W 5 10.00 Fair CLR 35.6 30.2 81% 32 30.09 0.0
02 01:55 W 5 10.00 Fair CLR 35.6 30.2 81% 32 30.09 0.0
02 01:35 W 5 10.00 Fair CLR 35.6 30.2 81% 32 30.1 0.0
02 01:15 W 5 10.00 Fair CLR 35.6 30.2 81% 32 30.1 0.0
02 00:55 W 7 10.00 Fair CLR 37.4 32 81% 33 30.1 0.0
02 00:35 W 6 10.00 Fair CLR 37.4 32 81% 33 30.1 0.0
02 00:15 W 5 10.00 Fair CLR 37.4 32 81% 34 30.1 0.0
01 23:55 W 6 10.00 Fair CLR 37.4 32 81% 33 30.1 0.0
01 23:35 W 6 10.00 Fair CLR 39.2 30.2 70% 36 30.1 0.0
01 23:15 W 6 10.00 Fair CLR 39.2 32 75% 36 30.1 0.0
01 22:55 W 3 10.00 Fair CLR 41 30.2 66% 30.1 0.0
01 22:35 W 5 10.00 Fair CLR 42.8 28.4 57% 41 30.1 0.0
01 22:15 W 6 10.00 Fair CLR 42.8 28.4 57% 40 30.1 0.0
01 21:55 W 3 10.00 Fair CLR 42.8 28.4 57% 30.1 0.0
01 21:35 W 5 10.00 Fair CLR 44.6 26.6 49% 43 30.09 0.0
01 21:15 NW 3 10.00 Fair CLR 44.6 26.6 49% 30.09 0.0
01 20:55 NW 5 10.00 Fair CLR 46.4 26.6 46% 45 30.08 0.0
01 20:35 NW 6 10.00 Fair CLR 48.2 28.4 46% 46 30.08 0.0
01 20:15 NW 5 9.00 Fair CLR 50 26.6 40% 49 30.08 0.0
01 19:55 NW 7 10.00 A Few Clouds FEW075 51.8 24.8 35% 30.07 0.0
01 19:35 NW 6 8.00 Fair CLR 51.8 24.8 35% 30.07 0.0
01 19:15 N 7 10.00 Fair CLR 51.8 23 32% 30.07 0.0
01 18:55 NW 8 10.00 A Few Clouds FEW075 51.8 23 32% 30.07 0.0
01 18:35 NW 7 10.00 Partly Cloudy SCT075 53.6 23 30% 30.07 0.0
01 18:15 N 12 10.00 Mostly Cloudy BKN070 53.6 24.8 33% 30.08 0.0
01 17:55 N 10 10.00 Mostly Cloudy BKN070 53.6 24.8 33% 30.07 0.0
01 17:35 N 13 10.00 Mostly Cloudy BKN070 53.6 26.6 35% 30.07 0.0
01 17:15 NE 6 10.00 Fair CLR 53.6 24.8 33% 30.08 0.0
01 16:55 NW 5 G 13 10.00 A Few Clouds FEW070 51.8 23 32% 30.08 0.0
01 16:35 N 6 G 13 10.00 Mostly Cloudy BKN070 50 24.8 37% 48 30.08 0.0
01 16:15 Calm 10.00 Mostly Cloudy BKN065 51.8 23 32% 30.08 0.0
01 15:55 NE 6 10.00 Mostly Cloudy BKN065 50 26.6 40% 48 30.09 0.0
01 15:35 NW 7 10.00 Partly Cloudy SCT065 50 24.8 37% 48 30.09 0.0
01 15:15 W 5 G 13 10.00 Partly Cloudy SCT065 51.8 26.6 38% 30.1 0.0
01 14:55 Calm 10.00 Mostly Cloudy SCT060 BKN070 50 24.8 37% 30.1 0.0
01 14:35 Vrbl 3 10.00 Mostly Cloudy BKN060 BKN070 50 26.6 40% 30.1 0.0
01 14:15 Calm 10.00 Overcast OVC060 50 26.6 40% 30.1 0.0
01 13:55 Vrbl 6 G 13 10.00 Mostly Cloudy BKN060 50 26.6 40% 48 30.1 0.0
01 13:35 NE 6 G 13 10.00 Mostly Cloudy FEW050 BKN060 50 28.4 43% 48 30.1 0.0
01 13:15 N 6 10.00 Overcast BKN055 OVC065 48.2 28.4 46% 46 30.11 0.0
01 12:55 Calm 10.00 Overcast OVC055 48.2 26.6 43% 30.11 0.0
01 12:35 Vrbl 5 10.00 Overcast FEW046 OVC060 46.4 28.4 50% 45 30.11 0.0
01 12:15 W 7 10.00 Overcast BKN046 OVC055 46.4 28.4 50% 43 30.11 0.0
01 11:55 Calm 9.00 Mostly Cloudy FEW043 FEW049 BKN060 48.2 28.4 46% 30.11 0.0
01 11:35 NW 6 10.00 Overcast SCT044 SCT049 OVC060 46.4 30.2 53% 44 30.11 0.0
01 11:15 Vrbl 5 10.00 Overcast BKN050 OVC055 44.6 30.2 57% 43 30.11 0.0
01 10:55 N 6 10.00 Overcast BKN046 OVC055 44.6 28.4 53% 42 30.11 0.0
01 10:35 Calm 10.00 Mostly Cloudy BKN048 44.6 26.6 49% 30.11 0.0
01 10:15 W 3 10.00 Fair CLR 44.6 26.6 49% 30.11 0.0
01 09:55 Calm 10.00 Fair CLR 44.6 28.4 53% 30.11 0.0
01 09:35 Calm 10.00 Partly Cloudy SCT050 42.8 28.4 57% 30.11 0.0
01 09:15 Calm 9.00 Overcast OVC050 42.8 30.2 61% 30.11 0.0
01 08:55 Calm 10.00 Overcast OVC050 41 32 70% 30.1 0.0
01 08:35 Calm 10.00 Overcast OVC050 39.2 32 75% 30.1 0.0
01 08:15 NE 3 10.00 Overcast OVC050 39.2 32 75% 30.1 0.0
01 07:55 Calm 10.00 Mostly Cloudy BKN050 37.4 32 81% 30.09 0.0
01 07:35 N 6 10.00 A Few Clouds FEW050 37.4 32 81% 33 30.09 0.0
01 07:15 N 5 10.00 Fair CLR 35.6 32 87% 32 30.08 0.0
01 06:55 N 6 10.00 Fair CLR 33.8 32 93% 29 30.08 0.0
01 06:35 N 7 10.00 Fair CLR 33.8 30.2 87% 28 30.07 0.0
01 06:15 N 7 10.00 Fair CLR 33.8 30.2 87% 28 30.07 0.0
01 05:55 N 7 10.00 Fair CLR 33.8 30.2 87% 28 30.06 0.0
01 05:35 N 7 10.00 Fair CLR 35.6 30.2 81% 31 30.06 0.0
01 05:15 N 7 10.00 Fair CLR 35.6 30.2 81% 31 30.05 0.0
01 04:55 N 8 10.00 Mostly Cloudy BKN060 35.6 30.2 81% 30 30.05 0.0
01 04:35 N 7 10.00 Overcast OVC060 37.4 30.2 75% 33 30.06 0.0
01 04:15 N 8 10.00 Overcast OVC055 37.4 30.2 75% 32 30.05 0.0
01 03:55 N 7 10.00 Overcast OVC060 37.4 30.2 75% 33 30.05 0.0
01 03:35 N 7 10.00 Overcast OVC055 37.4 30.2 75% 33 30.05 0.0
01 03:15 N 7 10.00 Mostly Cloudy BKN050 37.4 32 81% 33 30.05 0.0
01 02:55 NW 8 10.00 Mostly Cloudy BKN055 BKN070 37.4 32 81% 32 30.05 0.0
01 02:35 N 7 10.00 Overcast SCT050 SCT060 OVC070 37.4 32 81% 33 30.05 0.0
01 02:15 N 7 10.00 Overcast BKN055 OVC070 39.2 32 75% 35 30.05 0.0
01 01:55 N 6 10.00 Overcast FEW060 OVC070 39.2 32 75% 36 30.05 0.0
01 01:35 N 7 10.00 Overcast SCT060 OVC070 39.2 33.8 81% 35 30.05 0.0
01 01:15 N 7 10.00 Overcast SCT060 OVC075 39.2 35.6 87% 35 30.05 0.0
01 00:55 NW 6 10.00 Overcast OVC070 39.2 39.2 100% 36 30.05 0.0
01 00:35 W 8 7.00 Overcast FEW050 OVC070 37.4 37.4 100% 32 30.05 0.0
01 00:15 W 7 6.00 Fog/Mist BKN050 OVC075 37.4 37.4 100% 33 30.04 0.0
30 23:55 W 5 5.00 Fog/Mist FEW050 SCT070 BKN080 37.4 37.4 100% 34 30.04 0.0
30 23:35 W 5 8.00 Mostly Cloudy SCT070 BKN080 39.2 39.2 100% 36 30.03 0.0
30 23:15 Calm 10.00 Overcast BKN070 OVC075 39.2 39.2 100% 30.04 0.0
30 22:55 Calm 10.00 Overcast FEW049 BKN065 OVC075 39.2 39.2 100% 30.04 0.0
30 22:35 W 5 10.00 Overcast BKN049 OVC075 39.2 39.2 100% 36 30.04 0.0
30 22:15 W 3 10.00 Overcast SCT050 BKN070 OVC075 39.2 39.2 100% 30.04 0.0
30 21:55 W 3 10.00 Overcast SCT060 OVC070 41 41 100% 30.04 0.0
30 21:35 Calm 10.00 Overcast BKN055 OVC070 41 41 100% 30.03 0.0
30 21:15 Calm 10.00 Overcast FEW046 SCT055 OVC075 41 41 100% 30.03 0.0
30 20:55 NE 6 10.00 Overcast BKN047 BKN055 OVC075 41 41 100% 38 30.03 0.0
30 20:35 Calm 10.00 Overcast SCT049 OVC085 41 41 100% 30.02 0.0
30 20:15 Calm 10.00 Overcast SCT080 OVC090 42.8 41 93% 30.01 0.0
30 19:55 Calm 10.00 Mostly Cloudy FEW055 SCT070 BKN085 41 39.2 93% 30.01 0.0 0.02
30 19:35 SW 8 9.00 Light Rain SCT022 SCT060 SCT070 41 39.2 93% 36 30 0.0
30 19:15 NW 15 4.00 Light Rain Fog/Mist BKN021 BKN025 BKN033 41 41 100% 34 30.02 0.0
30 18:55 W 16 10.00 Light Rain SCT023 BKN042 OVC060 44.6 41 87% 38 30.03 0.0
30 18:15 NE 6 10.00 Mostly Cloudy BKN060 BKN075 BKN110 44.6 39.2 81% 42 30.02 0.0
30 17:55 NE 7 10.00 Fair CLR 44.6 39.2 81% 41 30.02 0.0 0.01
30 17:35 N 7 10.00 Partly Cloudy SCT075 44.6 39.2 81% 41 30.03 0.0
30 17:15 NW 8 9.00 Light Rain FEW020 FEW027 BKN075 42.8 41 93% 39 30.03 0.0
30 16:55 W 16 4.00 Light Rain Fog/Mist FEW020 SCT026 SCT038 42.8 39.2 87% 36 30.04 0.0 0.02
30 16:35 NW 22 G 29 2.00 Light Rain Fog/Mist and Breezy FEW017 SCT026 BKN041 42.8 39.2 87% 34 30.04 0.0
30 16:15 NW 6 G 12 10.00 Overcast OVC055 48.2 30.2 50% 46 30.03 0.0
30 15:55 W 7 10.00 Mostly Cloudy SCT055 BKN065 BKN075 50 30.2 47% 48 30.02 0.0
30 15:35 W 9 10.00 Partly Cloudy FEW048 FEW060 SCT075 50 30.2 47% 47 30.03 0.0
30 15:15 N 8 G 17 10.00 Mostly Cloudy FEW046 SCT055 BKN075 50 32 50% 47 30.04 0.0
30 14:55 NW 12 G 20 10.00 Overcast FEW044 BKN050 OVC080 50 30.2 47% 46 30.06 0.0
30 14:35 NW 9 G 16 10.00 Overcast SCT047 OVC075 48.2 30.2 50% 45 30.06 0.0
30 14:15 NW 8 10.00 Overcast SCT044 BKN075 OVC085 48.2 30.2 50% 45 30.07 0.0
30 13:55 N 9 10.00 Mostly Cloudy FEW041 SCT060 BKN085 48.2 32 54% 45 30.08 0.0
30 13:35 NW 8 10.00 Mostly Cloudy FEW042 BKN065 BKN090 46.4 30.2 53% 43 30.08 0.0
30 13:15 NW 9 10.00 Overcast FEW050 SCT065 OVC075 44.6 28.4 53% 40 30.09 0.0
30 12:55 N 10 10.00 Overcast SCT055 OVC070 46.4 30.2 53% 42 30.1 0.0
30 12:35 NW 14 10.00 Mostly Cloudy FEW019 FEW042 BKN055 44.6 30.2 57% 39 30.1 0.0
30 12:15 N 15 G 22 10.00 Mostly Cloudy SCT042 BKN050 44.6 28.4 53% 38 30.1 0.0
30 11:55 NW 15 10.00 Mostly Cloudy SCT041 SCT047 BKN055 46.4 30.2 53% 41 30.1 0.0
30 11:35 N 10 G 18 10.00 Mostly Cloudy FEW041 SCT055 BKN075 46.4 30.2 53% 42 30.1 0.0
30 11:15 N 13 10.00 Mostly Cloudy BKN055 44.6 30.2 57% 39 30.1 0.0
30 10:55 N 10 10.00 Mostly Cloudy FEW055 BKN100 44.6 28.4 53% 40 30.11 0.0
30 10:35 N 12 10.00 Mostly Cloudy FEW045 SCT055 BKN065 44.6 30.2 57% 39 30.1 0.0
30 10:15 N 12 10.00 Partly Cloudy SCT060 SCT075 SCT085 42.8 28.4 57% 37 30.1 0.0
30 09:55 N 12 G 18 10.00 A Few Clouds FEW055 41 26.6 57% 35 30.11 0.0
30 09:35 N 12 10.00 A Few Clouds FEW060 41 28.4 61% 35 30.11 0.0
30 09:15 N 13 10.00 Fair CLR 39.2 28.4 65% 32 30.11 0.0
30 08:55 N 13 10.00 Fair CLR 39.2 28.4 65% 32 30.11 0.0
30 08:35 N 12 10.00 Fair CLR 37.4 28.4 70% 30 30.11 0.0
30 08:15 N 10 10.00 Fair CLR 37.4 28.4 70% 31 30.11 0.0
30 07:55 N 9 10.00 Fair CLR 35.6 28.4 75% 29 30.11 0.0
30 07:35 N 10 10.00 Fair CLR 35.6 28.4 75% 29 30.11 0.0
30 07:15 N 10 10.00 Fair CLR 33.8 26.6 75% 26 30.11 0.0
30 06:55 N 10 10.00 Fair CLR 33.8 26.6 75% 26 30.11 0.0
30 06:35 N 6 10.00 Fair CLR 32 28.4 87% 27 30.11 0.0
30 06:15 N 7 10.00 Fair CLR 32 26.6 80% 26 30.1 0.0
30 05:55 N 7 10.00 Fair CLR 33.8 26.6 75% 28 30.1 0.0
30 05:35 N 7 10.00 Fair CLR 33.8 28.4 81% 28 30.1 0.0
30 05:15 N 6 10.00 Fair CLR 33.8 28.4 81% 29 30.1 0.0
30 04:55 N 7 10.00 Fair CLR 33.8 28.4 81% 28 30.1 0.0
30 04:35 N 5 10.00 Fair CLR 33.8 28.4 81% 30 30.1 0.0
30 04:15 N 8 10.00 Partly Cloudy SCT080 35.6 28.4 75% 30 30.1 0.0
30 03:55 N 8 10.00 Overcast OVC075 37.4 30.2 75% 32 30.1 0.0
30 03:35 NW 7 10.00 Overcast OVC075 37.4 32 81% 33 30.09 0.0
30 03:15 N 6 10.00 Overcast FEW050 BKN065 OVC080 37.4 28.4 70% 33 30.09 0.0
30 02:55 N 3 10.00 Overcast SCT050 BKN070 OVC080 39.2 28.4 65% 30.09 0.0
30 02:35 N 6 10.00 Overcast BKN075 OVC080 39.2 28.4 65% 36 30.09 0.0
30 02:15 N 6 10.00 Overcast OVC070 39.2 30.2 70% 36 30.09 0.0
30 01:55 N 8 10.00 Overcast FEW065 OVC075 39.2 28.4 65% 34 30.1 0.0
30 01:35 Vrbl 7 10.00 Overcast FEW065 OVC075 39.2 28.4 65% 35 30.1 0.0
30 01:15 N 8 G 14 10.00 Overcast BKN075 OVC085 41 28.4 61% 36 30.09 0.0
30 00:55 N 9 10.00 Overcast BKN075 OVC085 41 28.4 61% 36 30.08 0.0
30 00:35 N 12 10.00 Overcast FEW055 BKN075 OVC085 41 28.4 61% 35 30.08 0.0
30 00:15 N 13 G 20 10.00 Overcast SCT055 BKN065 OVC075 42.8 28.4 57% 37 30.07 0.0
29 23:55 N 15 10.00 Overcast SCT060 OVC070 42.8 28.4 57% 36 30.06 0.0
29 23:35 N 14 10.00 Overcast OVC075 42.8 30.2 61% 36 30.07 0.0
29 23:15 N 9 10.00 Mostly Cloudy BKN075 BKN085 42.8 30.2 61% 38 30.07 0.0
29 22:55 N 8 10.00 Partly Cloudy SCT085 SCT100 42.8 30.2 61% 39 30.07 0.0
29 22:35 N 9 10.00 Partly Cloudy FEW070 FEW080 SCT085 42.8 32 66% 38 30.06 0.0
29 22:15 N 9 10.00 Mostly Cloudy SCT075 BKN090 42.8 32 66% 38 30.06 0.0
29 21:55 N 8 10.00 Mostly Cloudy SCT055 BKN070 44.6 32 61% 41 30.06 0.0
29 21:35 N 8 10.00 Overcast SCT055 OVC070 46.4 32 57% 43 30.05 0.0
29 21:15 N 5 10.00 Overcast SCT060 OVC070 46.4 32 57% 45 30.04 0.0
29 20:55 N 7 10.00 Overcast BKN060 OVC075 46.4 33.8 62% 43 30.03 0.0
29 20:35 N 8 10.00 Mostly Cloudy BKN060 BKN080 48.2 32 54% 45 30.03 0.0
29 20:15 N 9 10.00 Partly Cloudy SCT060 48.2 33.8 58% 45 30.02 0.0
29 19:55 N 7 G 14 10.00 Fair CLR 50 32 50% 48 30.02 0.0
29 19:35 N 9 10.00 Fair CLR 51.8 32 47% 30.01 0.0
29 19:15 N 12 G 18 10.00 Fair CLR 51.8 30.2 44% 30.01 0.0
29 18:55 N 10 10.00 A Few Clouds FEW080 53.6 32 44% 30.01 0.0
29 18:35 N 13 10.00 Mostly Cloudy BKN080 53.6 32 44% 30.01 0.0
29 18:15 N 14 10.00 Mostly Cloudy BKN080 55.4 32 41% 30.01 0.0
29 17:55 NW 9 G 18 10.00 A Few Clouds FEW080 53.6 30.2 41% 30.01 0.0
29 17:35 W 14 10.00 Partly Cloudy SCT085 53.6 32 44% 30.01 0.0
29 17:15 NW 14 10.00 Mostly Cloudy FEW060 BKN085 55.4 32 41% 30.02 0.0
29 16:55 NW 14 G 21 10.00 Partly Cloudy FEW060 FEW070 SCT090 55.4 32 41% 30.02 0.0
29 16:35 NW 15 10.00 Partly Cloudy FEW060 FEW070 SCT080 55.4 32 41% 30.02 0.0
29 16:15 NW 20 10.00 Mostly Cloudy FEW055 FEW065 BKN080 53.6 33.8 47% 30.03 0.0
29 15:55 NW 15 10.00 Mostly Cloudy FEW060 BKN080 BKN100 53.6 32 44% 30.03 0.0
29 15:35 NW 16 10.00 Mostly Cloudy FEW080 BKN095 55.4 32 41% 30.03 0.0
Date Time (cdt) Wind (mph) Vis. (mi.) Weather Sky Cond. Air Dwpt Max. Min. Relative Humidity Wind Chill (°F) Heat Index (°F) altimeter (in) sea level (mb) 1 hr 3 hr 6 hr
6 hour
Temperature (ºF) Pressure Precipitation (in)